Αρχική σελίδα
METAR-TAF:

METAR-TAF

Αεροδρόμια :

Πορτ-οφ-Σπέιν, Τρινιντάντ, Τρινιδάδ και Τομπάγκο

γεωγραφικό πλάτος: 10-37N, γεωγραφικό μήκος: 061-21W, υψόμετρο: 12 μ

Παρών καιρός

Η αναφορά έγινε 43 λεπτά πριν, στις 06:00 UTC
Ήπιος άνεμος
Θερμοκρασία 23°C
Υγρασία 89%
Πίεση 1012 hPa
Ορατότητα 10 χλμ και άνω
Λίγα νέφη σε ύψος 1600 πόδια

METAR: TTPP 220600Z 00000KT 9999 FEW016 23/21 Q1012 NOSIG

Χρόνος: 02:43 (06:43 UTC)

Πρόγνωση Καιρού

Η αναφορά έγινε 2 ώρες και 43 λεπτά πριν, στις 04:00 UTC
Η πρόγνωση ισχύει από τις 22 στις 06 UTC έως τις 23 στις 06 UTC
Άνεμος kt από Β
Ορατότητα 10 χλμ και άνω
Λίγα νέφη σε ύψος 1800 πόδια
Καθιστάμενος
από 22 στις 12 UTC έως τις 22 στις 14 UTC
Άνεμος 12 kt από Α
Διάσπαρτα νέφη σε ύψος 2200 πόδια
Καθιστάμενος
από 23 στις 00 UTC έως τις 23 στις 02 UTC
Άνεμος 5 kt από Α

TAF: TTPP 220400Z 2206/2306 00000KT 9999 FEW018 BECMG 2212/2214 10012KT SCT022 BECMG 2300/2302 09005KT

Μετεωρολογικές αναφορές και προγνώσεις για περισσότερα από 4000 αεροδρόμια (δελτία METAR και TAF).

Οι διαθέσιμοι σταθμοί απεικονίζονται στο χάρτη με κίτρινες και κόκκινες κουκκίδες.

Μετακινήστε το ποντίκι πάνω από τις κουκκίδες για να δείτε το όνομα του σταθμού.

Στη συνέχεια, κάντε κλικ για να δείτε τις μετεωρολογικές αναφορές και τις προγνώσεις καιρού.

Για να αλλάξετε το χάρτη: κάντε κλικ στα πράσινα κουμπιά με τον μαύρο σταυρό για να ζουμάρετε, στο πράσινο κουμπί με την παύλα για να αφαιρέσετε το ζουμ ή στα πράσινα βέλη για να αντιπαραβάλλετε χάρτες.


METAR-TAF: